createdAt,value
2022-12-29T00:01:01.810Z,19.08
2022-12-29T00:03:29.342Z,20.10
2022-12-29T00:05:58.474Z,23.05
2022-12-29T00:08:40.604Z,8.98
2022-12-29T00:11:10.576Z,12.27
2022-12-29T00:13:56.509Z,13.18
2022-12-29T00:16:24.018Z,12.40
2022-12-29T00:18:51.464Z,17.27
2022-12-29T00:21:39.962Z,11.93
2022-12-29T00:24:27.387Z,13.68
2022-12-29T00:27:22.651Z,23.73
2022-12-29T00:30:08.973Z,20.58
2022-12-29T00:32:54.934Z,20.92
2022-12-29T00:35:32.483Z,8.75
2022-12-29T00:38:24.599Z,7.63
2022-12-29T00:41:10.250Z,19.43
2022-12-29T00:43:55.946Z,10.52
2022-12-29T00:46:23.133Z,23.20
2022-12-29T00:49:08.899Z,10.63
2022-12-29T00:51:36.025Z,19.40
2022-12-29T00:54:03.852Z,15.57
2022-12-29T00:56:30.979Z,11.40
2022-12-29T00:59:11.269Z,19.38
2022-12-29T01:01:39.954Z,24.08
2022-12-29T01:04:08.048Z,23.15
2022-12-29T01:06:37.008Z,9.00
2022-12-29T01:09:23.973Z,22.65
2022-12-29T01:11:51.536Z,11.25
2022-12-29T01:14:19.934Z,20.65
2022-12-29T01:16:47.527Z,23.65
2022-12-29T01:19:16.179Z,24.20
2022-12-29T01:21:46.198Z,22.55
2022-12-29T01:24:15.079Z,14.77
2022-12-29T01:26:42.532Z,24.25
2022-12-29T01:29:10.189Z,27.08
2022-12-29T01:31:37.829Z,10.85
2022-12-29T01:34:05.965Z,19.73
2022-12-29T01:36:33.537Z,21.02
2022-12-29T01:39:01.687Z,10.48
2022-12-29T01:41:28.893Z,19.88
2022-12-29T01:44:00.224Z,17.88
2022-12-29T01:46:32.690Z,8.68
2022-12-29T01:49:09.297Z,13.50
2022-12-29T01:51:43.674Z,14.52
2022-12-29T01:54:19.257Z,10.50
2022-12-29T01:56:47.463Z,7.90
2022-12-29T01:59:23.627Z,9.40
2022-12-29T02:01:51.870Z,9.90
2022-12-29T02:04:19.524Z,9.60
2022-12-29T02:06:52.878Z,11.77
2022-12-29T02:09:20.739Z,11.00
2022-12-29T02:11:51.891Z,11.88
2022-12-29T02:14:19.557Z,14.40
2022-12-29T02:17:12.515Z,7.93
2022-12-29T02:20:01.598Z,12.10
2022-12-29T02:23:03.091Z,17.02
2022-12-29T02:25:51.848Z,10.18
2022-12-29T02:28:47.038Z,5.82
2022-12-29T02:31:14.462Z,5.28
2022-12-29T02:33:44.287Z,7.35
2022-12-29T02:36:34.024Z,5.57
2022-12-29T02:39:28.492Z,4.78
2022-12-29T02:42:10.658Z,6.15
2022-12-29T02:44:59.493Z,6.38
2022-12-29T02:47:47.844Z,5.82
2022-12-29T02:50:26.247Z,6.03
2022-12-29T02:53:00.207Z,5.00
2022-12-29T02:55:27.620Z,4.22
2022-12-29T02:58:10.168Z,4.80
2022-12-29T03:00:49.116Z,5.80
2022-12-29T03:03:28.988Z,5.45
2022-12-29T03:06:11.979Z,6.57
2022-12-29T03:09:03.935Z,4.57
2022-12-29T03:11:57.827Z,5.28
2022-12-29T03:14:52.614Z,3.88
2022-12-29T03:17:30.653Z,4.00
2022-12-29T03:20:07.395Z,4.40
2022-12-29T03:22:42.576Z,4.93
2022-12-29T03:25:41.021Z,4.60
2022-12-29T03:28:16.552Z,4.43
2022-12-29T03:30:48.374Z,7.07
2022-12-29T03:33:29.727Z,4.82
2022-12-29T03:36:04.148Z,5.50
2022-12-29T03:38:46.236Z,3.42
2022-12-29T03:41:21.444Z,4.20
2022-12-29T03:43:48.916Z,5.55
2022-12-29T03:46:16.428Z,4.40
2022-12-29T03:48:43.689Z,4.68
2022-12-29T03:51:11.405Z,4.90
2022-12-29T03:53:38.546Z,4.50
2022-12-29T03:56:06.214Z,3.95
2022-12-29T03:58:34.251Z,4.75
2022-12-29T04:01:09.888Z,4.82
2022-12-29T04:03:39.509Z,5.38
2022-12-29T04:06:07.192Z,4.82
2022-12-29T04:08:40.745Z,4.80
2022-12-29T04:11:08.163Z,4.50
2022-12-29T04:13:35.427Z,5.57
2022-12-29T04:16:03.062Z,5.28
2022-12-29T04:18:30.170Z,5.30
2022-12-29T04:21:00.716Z,3.72
2022-12-29T04:23:29.775Z,4.55
2022-12-29T04:25:59.675Z,4.88
2022-12-29T04:28:28.281Z,3.90
2022-12-29T04:30:58.698Z,5.10
2022-12-29T04:33:34.528Z,4.95
2022-12-29T04:36:02.582Z,4.47
2022-12-29T04:38:29.717Z,3.78
2022-12-29T04:41:00.719Z,4.90
2022-12-29T04:43:29.215Z,4.15
2022-12-29T04:46:07.397Z,4.50
2022-12-29T04:48:57.975Z,4.30
2022-12-29T04:51:43.364Z,3.80
2022-12-29T04:54:12.436Z,4.78
2022-12-29T04:56:40.368Z,4.75
2022-12-29T04:59:08.098Z,4.13
2022-12-29T05:01:35.708Z,4.85
2022-12-29T05:04:03.209Z,5.28
2022-12-29T05:06:30.669Z,3.85
2022-12-29T05:08:57.839Z,4.40
2022-12-29T05:11:25.715Z,3.92
2022-12-29T05:13:54.620Z,4.32
2022-12-29T05:16:22.763Z,4.85
2022-12-29T05:18:50.053Z,3.70
2022-12-29T05:21:17.895Z,4.50
2022-12-29T05:23:45.616Z,4.85
2022-12-29T05:26:13.242Z,3.95
2022-12-29T05:28:54.927Z,4.27
2022-12-29T05:31:23.624Z,4.55
2022-12-29T05:33:50.879Z,4.25
2022-12-29T05:36:18.811Z,4.65
2022-12-29T05:38:50.284Z,4.50
2022-12-29T05:41:18.820Z,5.57
2022-12-29T05:44:01.728Z,6.28
2022-12-29T05:46:29.494Z,5.97
2022-12-29T05:49:09.440Z,4.97
2022-12-29T05:51:53.566Z,4.32
2022-12-29T05:54:20.756Z,5.40
2022-12-29T05:56:48.172Z,4.15
2022-12-29T05:59:15.576Z,4.75
2022-12-29T06:01:43.709Z,5.22
2022-12-29T06:04:11.073Z,4.78
2022-12-29T06:06:39.837Z,4.30
2022-12-29T06:09:11.907Z,4.88
2022-12-29T06:11:39.331Z,4.72
2022-12-29T06:14:06.564Z,4.55
2022-12-29T06:16:34.676Z,5.18
2022-12-29T06:19:04.556Z,6.03
2022-12-29T06:21:32.438Z,4.32
2022-12-29T06:24:01.652Z,4.55
2022-12-29T06:26:29.150Z,4.70
2022-12-29T06:28:57.276Z,5.30
2022-12-29T06:31:25.025Z,4.30
2022-12-29T06:33:52.211Z,4.55
2022-12-29T06:36:19.632Z,5.18
2022-12-29T06:38:47.016Z,4.35
2022-12-29T06:41:14.423Z,5.65
2022-12-29T06:44:01.670Z,5.15
2022-12-29T06:46:51.395Z,4.80
2022-12-29T06:49:19.605Z,11.13
2022-12-29T06:51:47.412Z,7.03
2022-12-29T06:54:14.574Z,5.57
2022-12-29T06:56:41.958Z,5.82
2022-12-29T06:59:10.613Z,5.22
2022-12-29T07:01:38.222Z,5.50
2022-12-29T07:04:05.627Z,5.47
2022-12-29T07:06:33.008Z,5.68
2022-12-29T07:09:00.177Z,5.95
2022-12-29T07:11:27.596Z,5.13
2022-12-29T07:13:54.687Z,5.45
2022-12-29T07:16:22.109Z,5.40
2022-12-29T07:18:49.372Z,5.60
2022-12-29T07:21:17.388Z,6.75
2022-12-29T07:23:44.829Z,5.88
2022-12-29T07:26:14.403Z,4.47
2022-12-29T07:28:42.848Z,5.78
2022-12-29T07:31:17.914Z,4.90
2022-12-29T07:33:46.156Z,4.95
2022-12-29T07:36:13.955Z,5.57
2022-12-29T07:38:41.536Z,5.78
2022-12-29T07:41:09.238Z,5.43
2022-12-29T07:43:36.688Z,5.50
2022-12-29T07:46:56.612Z,4.78
2022-12-29T07:49:09.538Z,6.50
2022-12-29T07:51:36.887Z,5.13
2022-12-29T07:54:04.102Z,4.68
2022-12-29T07:56:31.486Z,5.47
2022-12-29T07:58:58.640Z,5.07
2022-12-29T08:01:26.241Z,5.07
2022-12-29T08:03:57.265Z,6.05
2022-12-29T08:06:25.411Z,5.20
2022-12-29T08:08:52.546Z,4.68
2022-12-29T08:11:20.061Z,5.47
2022-12-29T08:13:47.192Z,6.20
2022-12-29T08:16:14.713Z,5.13
2022-12-29T08:18:41.997Z,6.07
2022-12-29T08:21:09.546Z,5.25
2022-12-29T08:23:36.735Z,6.68
2022-12-29T08:26:05.877Z,4.72
2022-12-29T08:28:34.061Z,6.20
2022-12-29T08:31:02.822Z,5.35
2022-12-29T08:33:30.472Z,5.32
2022-12-29T08:36:02.210Z,5.45
2022-12-29T08:38:30.046Z,6.60
2022-12-29T08:40:58.716Z,5.68
2022-12-29T08:43:26.275Z,5.57
2022-12-29T08:45:54.235Z,5.97
2022-12-29T08:48:23.169Z,5.97
2022-12-29T08:50:51.130Z,6.93
2022-12-29T08:53:19.280Z,6.25
2022-12-29T08:55:48.147Z,5.80
2022-12-29T08:58:17.527Z,5.95
2022-12-29T09:00:45.429Z,5.95
2022-12-29T09:03:12.791Z,5.72
2022-12-29T09:05:40.382Z,6.05
2022-12-29T09:08:07.565Z,6.47
2022-12-29T09:10:34.978Z,6.18
2022-12-29T09:13:02.121Z,6.82
2022-12-29T09:15:29.495Z,5.95
2022-12-29T09:17:56.717Z,6.40
2022-12-29T09:20:24.154Z,6.55
2022-12-29T09:22:51.359Z,7.22
2022-12-29T09:25:18.911Z,7.03
2022-12-29T09:27:46.102Z,5.57
2022-12-29T09:30:15.464Z,6.68
2022-12-29T09:32:45.234Z,6.53
2022-12-29T09:35:15.143Z,6.38
2022-12-29T09:37:42.760Z,6.05
2022-12-29T09:40:32.064Z,7.05
2022-12-29T09:43:51.750Z,15.18
2022-12-29T09:46:28.782Z,6.65
2022-12-29T09:49:07.611Z,6.32
2022-12-29T09:51:38.500Z,6.40
2022-12-29T09:54:34.274Z,6.85
2022-12-29T09:57:02.375Z,7.28
2022-12-29T09:59:41.827Z,6.53
2022-12-29T10:02:43.757Z,6.55
2022-12-29T10:05:35.600Z,6.68
2022-12-29T10:08:26.665Z,6.57
2022-12-29T10:11:35.850Z,6.43
2022-12-29T10:14:44.967Z,6.50
2022-12-29T10:17:32.922Z,7.15
2022-12-29T10:20:27.527Z,6.78
2022-12-29T10:23:20.503Z,6.18
2022-12-29T10:25:48.343Z,6.20
2022-12-29T10:28:36.541Z,5.50
2022-12-29T10:31:10.147Z,6.32
2022-12-29T10:33:41.726Z,5.95
2022-12-29T10:36:19.159Z,6.15
2022-12-29T10:38:58.388Z,7.07
2022-12-29T10:41:45.655Z,5.95
2022-12-29T10:44:18.016Z,6.28
2022-12-29T10:46:55.498Z,5.70
2022-12-29T10:49:23.255Z,6.10
2022-12-29T10:51:53.032Z,6.82
2022-12-29T10:54:29.746Z,6.18
2022-12-29T10:57:35.087Z,6.20
2022-12-29T11:00:02.683Z,6.35
2022-12-29T11:02:51.587Z,6.30
2022-12-29T11:05:38.677Z,5.95
2022-12-29T11:08:13.462Z,6.00
2022-12-29T11:10:43.661Z,7.20
2022-12-29T11:13:34.901Z,6.18
2022-12-29T11:16:06.008Z,7.15
2022-12-29T11:18:38.432Z,6.50
2022-12-29T11:21:24.484Z,5.50
2022-12-29T11:24:00.789Z,5.97
2022-12-29T11:26:34.081Z,4.90
2022-12-29T11:29:17.496Z,6.25
2022-12-29T11:31:51.486Z,5.95
2022-12-29T11:34:36.281Z,5.28
2022-12-29T11:37:07.351Z,6.38
2022-12-29T11:40:09.231Z,5.87
2022-12-29T11:42:42.886Z,6.43
2022-12-29T11:45:27.525Z,5.50
2022-12-29T11:47:59.422Z,5.75
2022-12-29T11:50:30.729Z,5.47
2022-12-29T11:53:34.934Z,5.88
2022-12-29T11:56:07.028Z,5.25
2022-12-29T11:58:37.458Z,5.35
2022-12-29T12:01:35.703Z,5.03
2022-12-29T12:04:08.212Z,4.97
2022-12-29T12:06:41.848Z,6.05
2022-12-29T12:09:28.550Z,6.40
2022-12-29T12:11:57.754Z,5.47
2022-12-29T12:14:39.494Z,6.95
2022-12-29T12:17:47.751Z,5.50
2022-12-29T12:20:39.204Z,6.53
2022-12-29T12:23:43.911Z,6.72
2022-12-29T12:26:18.792Z,6.22
2022-12-29T12:29:00.616Z,6.85
2022-12-29T12:31:48.902Z,6.77
2022-12-29T12:34:31.299Z,6.78
2022-12-29T12:37:01.434Z,6.53
2022-12-29T12:40:08.494Z,6.55
2022-12-29T12:42:44.326Z,6.13
2022-12-29T12:45:37.479Z,7.25
2022-12-29T12:48:19.602Z,6.95
2022-12-29T12:56:20.869Z,7.90
2022-12-29T12:59:09.462Z,7.85
2022-12-29T13:01:40.415Z,6.40
2022-12-29T13:04:37.710Z,7.07
2022-12-29T13:07:35.383Z,6.95
2022-12-29T13:10:28.473Z,6.38
2022-12-29T13:13:40.718Z,6.15
2022-12-29T13:16:28.706Z,6.90
2022-12-29T13:19:13.861Z,6.32
2022-12-29T13:22:06.606Z,5.60
2022-12-29T13:24:48.611Z,6.93
2022-12-29T13:27:38.147Z,6.78
2022-12-29T13:30:16.719Z,7.20
2022-12-29T13:32:43.807Z,7.00
2022-12-29T13:35:17.077Z,8.68
2022-12-29T13:38:13.732Z,7.72
2022-12-29T13:40:46.151Z,10.02
2022-12-29T13:43:15.381Z,13.65
2022-12-29T13:45:44.698Z,10.38
2022-12-29T13:48:21.072Z,25.52
2022-12-29T13:50:54.538Z,49.35
2022-12-29T13:53:53.701Z,25.02
2022-12-29T13:56:35.698Z,12.80
2022-12-29T13:59:10.712Z,6.95
2022-12-29T14:01:49.449Z,8.18
2022-12-29T14:04:25.671Z,6.88
2022-12-29T14:07:13.094Z,6.53
2022-12-29T14:09:49.885Z,7.30
2022-12-29T14:12:40.326Z,7.10
2022-12-29T14:15:10.193Z,8.00
2022-12-29T14:17:44.806Z,7.75
2022-12-29T14:20:24.403Z,8.50
2022-12-29T14:23:16.755Z,12.00
2022-12-29T14:25:57.483Z,13.20
2022-12-29T14:28:29.525Z,13.68
2022-12-29T14:31:01.529Z,11.50
2022-12-29T14:36:18.399Z,18.90
2022-12-29T14:38:47.286Z,21.42
2022-12-29T14:41:30.041Z,23.27
2022-12-29T14:44:11.588Z,31.10
2022-12-29T14:46:59.784Z,20.85
2022-12-29T14:49:32.365Z,26.98
2022-12-29T14:52:26.857Z,20.13
2022-12-29T14:55:01.473Z,12.38
2022-12-29T14:57:34.061Z,11.82
2022-12-29T15:00:10.059Z,19.73
2022-12-29T15:02:44.866Z,12.93
2022-12-29T15:05:28.586Z,11.73
2022-12-29T15:07:57.947Z,10.85
2022-12-29T15:10:28.223Z,10.75
2022-12-29T15:12:56.424Z,9.57
2022-12-29T15:15:26.880Z,8.23
2022-12-29T15:17:54.537Z,11.13
2022-12-29T15:20:30.999Z,7.78
2022-12-29T15:23:12.848Z,8.05
2022-12-29T15:25:51.844Z,9.25
2022-12-29T15:28:21.728Z,10.65
2022-12-29T15:31:02.399Z,9.82
2022-12-29T15:33:29.704Z,14.25
2022-12-29T15:36:03.067Z,17.67
2022-12-29T15:38:38.559Z,22.52
2022-12-29T15:41:26.707Z,22.13
2022-12-29T15:43:59.813Z,16.65
2022-12-29T15:46:30.596Z,24.80
2022-12-29T15:48:58.242Z,16.73
2022-12-29T15:51:38.729Z,20.23
2022-12-29T15:54:06.998Z,15.75
2022-12-29T15:56:34.737Z,20.05
2022-12-29T15:59:02.311Z,16.58
2022-12-29T16:01:33.048Z,20.45
2022-12-29T16:04:03.909Z,10.55
2022-12-29T16:06:35.387Z,10.57
2022-12-29T16:09:08.186Z,9.50
2022-12-29T16:11:38.845Z,8.75
2022-12-29T16:14:18.796Z,9.02
2022-12-29T16:16:48.797Z,9.43
2022-12-29T16:19:38.573Z,10.60
2022-12-29T16:22:13.351Z,9.00
2022-12-29T16:24:41.509Z,11.13
2022-12-29T16:27:28.133Z,9.30
2022-12-29T16:29:56.517Z,10.18
2022-12-29T16:32:30.487Z,10.40
2022-12-29T16:35:28.577Z,8.75
2022-12-29T16:38:19.101Z,9.68
2022-12-29T16:40:56.116Z,9.90
2022-12-29T16:43:32.650Z,9.50
2022-12-29T16:46:00.154Z,11.52
2022-12-29T16:48:29.488Z,17.83
2022-12-29T16:51:18.067Z,13.10
2022-12-29T16:53:54.550Z,16.15
2022-12-29T16:56:26.460Z,22.40
2022-12-29T16:59:04.286Z,15.35
2022-12-29T17:01:32.063Z,15.68
2022-12-29T17:04:05.563Z,18.40
2022-12-29T17:06:33.319Z,15.95
2022-12-29T17:09:00.999Z,16.13
2022-12-29T17:11:58.452Z,19.45
2022-12-29T17:14:40.508Z,46.40
2022-12-29T17:17:35.512Z,25.92
2022-12-29T17:20:24.748Z,19.42
2022-12-29T17:22:55.551Z,13.95
2022-12-29T17:25:36.430Z,16.88
2022-12-29T17:28:24.951Z,20.00
2022-12-29T17:30:54.825Z,13.93
2022-12-29T17:33:22.114Z,14.00
2022-12-29T17:35:55.151Z,14.90
2022-12-29T17:38:30.284Z,17.23
2022-12-29T17:40:58.892Z,16.58
2022-12-29T17:43:29.054Z,17.50
2022-12-29T17:46:02.203Z,12.98
2022-12-29T17:48:29.372Z,11.88
2022-12-29T17:50:57.994Z,13.40
2022-12-29T17:53:29.476Z,13.15
2022-12-29T17:55:57.175Z,11.52
2022-12-29T17:58:26.986Z,14.15
2022-12-29T18:00:59.746Z,12.93
2022-12-29T18:03:35.266Z,12.52
2022-12-29T18:06:08.069Z,10.23
2022-12-29T18:11:04.166Z,13.63
2022-12-29T18:13:43.959Z,13.73
2022-12-29T18:16:14.738Z,38.63
2022-12-29T18:18:42.124Z,26.95
2022-12-29T18:21:18.821Z,20.85
2022-12-29T18:23:46.864Z,36.72
2022-12-29T18:26:25.629Z,40.70
2022-12-29T18:28:55.987Z,13.82
2022-12-29T18:31:26.397Z,11.32
2022-12-29T18:33:54.935Z,12.27
2022-12-29T18:36:23.245Z,10.93
2022-12-29T18:38:52.077Z,12.38
2022-12-29T18:41:31.453Z,11.13
2022-12-29T18:43:59.487Z,11.05
2022-12-29T18:46:27.328Z,10.70
2022-12-29T18:48:54.846Z,11.00
2022-12-29T18:51:24.393Z,13.75
2022-12-29T18:53:55.307Z,21.75
2022-12-29T18:56:24.081Z,19.00
2022-12-29T18:58:53.426Z,14.05
2022-12-29T19:01:23.917Z,19.58
2022-12-29T19:03:53.236Z,10.23
2022-12-29T19:06:21.414Z,11.90
2022-12-29T19:08:48.710Z,11.20
2022-12-29T19:11:17.831Z,11.10
2022-12-29T19:13:45.009Z,11.70
2022-12-29T19:16:20.493Z,11.63
2022-12-29T19:18:58.597Z,12.57
2022-12-29T19:21:36.646Z,11.75
2022-12-29T19:24:04.316Z,12.32
2022-12-29T19:26:35.658Z,14.30
2022-12-29T19:29:04.273Z,12.60
2022-12-29T19:31:31.794Z,11.82
2022-12-29T19:34:00.340Z,10.32
2022-12-29T19:36:27.907Z,9.32
2022-12-29T19:38:55.890Z,9.40
2022-12-29T19:41:23.911Z,8.07
2022-12-29T19:43:51.317Z,8.30
2022-12-29T19:46:20.441Z,8.50
2022-12-29T19:48:47.699Z,9.13
2022-12-29T19:51:17.401Z,9.48
2022-12-29T19:53:46.053Z,10.20
2022-12-29T19:56:14.651Z,10.10
2022-12-29T19:58:46.944Z,9.60
2022-12-29T20:01:20.937Z,9.65
2022-12-29T20:03:49.075Z,9.68
2022-12-29T20:06:18.290Z,9.48
2022-12-29T20:08:45.661Z,9.00
2022-12-29T20:11:16.347Z,10.38
2022-12-29T20:13:44.059Z,9.60
2022-12-29T20:16:19.846Z,9.02
2022-12-29T20:18:48.458Z,10.77
2022-12-29T20:21:21.594Z,10.02
2022-12-29T20:23:50.942Z,10.63
2022-12-29T20:26:25.613Z,10.52
2022-12-29T20:28:53.703Z,10.25
2022-12-29T20:31:34.491Z,11.18
2022-12-29T20:34:02.742Z,81.72
2022-12-29T20:36:33.456Z,74.40
2022-12-29T20:39:04.247Z,59.95
2022-12-29T20:41:31.754Z,71.25
2022-12-29T20:43:59.386Z,188.82
2022-12-29T20:46:35.065Z,82.78
2022-12-29T20:49:08.041Z,37.63
2022-12-29T20:52:04.578Z,14.38
2022-12-29T20:54:23.468Z,14.20
2022-12-29T20:56:52.367Z,11.70
2022-12-29T20:59:28.403Z,14.57
2022-12-29T21:01:57.367Z,12.32
2022-12-29T21:04:25.263Z,12.32
2022-12-29T21:06:52.900Z,11.80
2022-12-29T21:09:20.418Z,11.63
2022-12-29T21:11:48.915Z,12.18
2022-12-29T21:14:16.176Z,11.73
2022-12-29T21:16:43.864Z,11.90
2022-12-29T21:19:11.236Z,11.93
2022-12-29T21:21:38.716Z,11.95
2022-12-29T21:24:07.097Z,11.65
2022-12-29T21:26:34.531Z,11.50
2022-12-29T21:29:03.459Z,11.63
2022-12-29T21:31:33.597Z,12.02
2022-12-29T21:34:01.722Z,12.40
2022-12-29T21:36:30.268Z,12.40
2022-12-29T21:39:00.363Z,11.38
2022-12-29T21:41:27.843Z,11.07
2022-12-29T21:44:13.493Z,12.43
2022-12-29T21:46:42.121Z,11.85
2022-12-29T21:49:09.995Z,11.50
2022-12-29T21:51:54.089Z,13.13
2022-12-29T21:54:47.982Z,12.75
2022-12-29T21:57:37.312Z,12.13
2022-12-29T22:00:25.212Z,12.63
2022-12-29T22:03:16.702Z,12.73
2022-12-29T22:06:09.056Z,11.15
2022-12-29T22:08:55.891Z,11.82
2022-12-29T22:11:41.861Z,11.88
2022-12-29T22:14:09.738Z,11.95
2022-12-29T22:16:36.942Z,11.25
2022-12-29T22:19:05.047Z,12.25
2022-12-29T22:21:32.144Z,12.00
2022-12-29T22:24:00.778Z,12.30
2022-12-29T22:26:28.083Z,14.73
2022-12-29T22:28:55.809Z,16.77
2022-12-29T22:31:29.019Z,14.45
2022-12-29T22:33:57.857Z,13.70
2022-12-29T22:36:25.122Z,17.58
2022-12-29T22:38:52.768Z,16.58
2022-12-29T22:41:20.482Z,26.73
2022-12-29T22:43:48.058Z,20.27
2022-12-29T22:46:15.390Z,12.15
2022-12-29T22:48:43.397Z,28.10
2022-12-29T22:51:10.679Z,18.23
2022-12-29T22:53:38.151Z,26.10
2022-12-29T22:56:08.281Z,27.52
2022-12-29T22:58:35.732Z,24.27
2022-12-29T23:01:06.440Z,42.30
2022-12-29T23:03:34.104Z,21.23
2022-12-29T23:06:04.033Z,27.95
2022-12-29T23:08:34.539Z,36.58
2022-12-29T23:11:02.431Z,42.97
2022-12-29T23:13:30.030Z,22.38
2022-12-29T23:15:57.200Z,31.13
2022-12-29T23:18:24.924Z,29.15
2022-12-29T23:20:52.612Z,35.28
2022-12-29T23:23:46.469Z,23.90
2022-12-29T23:26:24.742Z,34.30
2022-12-29T23:28:59.530Z,19.25
2022-12-29T23:31:27.996Z,16.35
2022-12-29T23:33:56.319Z,20.65
2022-12-29T23:36:23.835Z,16.33
2022-12-29T23:38:51.469Z,16.90
2022-12-29T23:41:18.872Z,20.38
2022-12-29T23:43:47.277Z,18.67
2022-12-29T23:46:17.429Z,33.00
2022-12-29T23:48:45.426Z,29.52
2022-12-29T23:51:12.751Z,28.58
2022-12-29T23:53:42.221Z,34.53
2022-12-29T23:56:12.862Z,19.30
2022-12-29T23:58:40.361Z,17.73
